Time;durP1;ratioP1;P1;durP2;ratioP2;P2;SDS_P1;SDS_P2;PMS_P1;PMS_P2;Temp;Humidity;BMP_temperature;BMP_pressure;BME280_temperature;BME280_humidity;BME280_pressure;Samples;Min_cycle;Max_cycle;Signal;HPM_P1;HPM_P2
2021/12/04 00:00:27;;;;;;;;;;;;;;;9.69;49.78;99718.75;5059593;28;19921;-81
2021/12/04 00:02:54;;;;;;;;;;;;;;;9.69;49.81;99726.00;5062125;28;19928;-81
2021/12/04 00:05:22;;;;;;;;;;;;;;;9.68;49.99;99721.56;5061891;28;20406;-81
2021/12/04 00:07:48;;;;;;;;;;;;;;;9.69;49.98;99728.72;5073724;28;20011;-82
2021/12/04 00:10:21;;;;;;;;;;;;;;;9.67;49.76;99730.69;5075233;28;19959;-82
2021/12/04 00:12:48;;;;;;;;;;;;;;;9.67;49.86;99722.56;5066159;28;20363;-82
2021/12/04 00:15:14;;;;;;;;;;;;;;;9.67;50.12;99718.00;5075584;28;19921;-81
2021/12/04 00:17:41;;;;;;;;;;;;;;;9.67;49.94;99707.16;5051746;28;19932;-82
2021/12/04 00:20:09;;;;;;;;;;;;;;;9.67;49.94;99703.56;5055903;28;19946;-81
2021/12/04 00:22:36;;;;;;;;;;;;;;;9.66;49.98;99708.13;5060175;28;19920;-79
2021/12/04 00:25:06;;;;;;;;;;;;;;;9.66;49.93;99707.28;5058169;28;19921;-81
2021/12/04 00:27:33;;;;;;;;;;;;;;;9.67;49.91;99692.75;5059517;28;20031;-82
2021/12/04 00:29:59;;;;;;;;;;;;;;;9.66;50.30;99691.88;5049714;28;20351;-80
2021/12/04 00:32:31;;;;;;;;;;;;;;;9.66;50.22;99694.59;5067767;28;19948;-79
2021/12/04 00:35:11;;;;;;;;;;;;;;;9.66;50.27;99696.44;5049040;28;20003;-81
2021/12/04 00:43:21;;;;;;;;;;;;;;;9.66;50.28;99674.75;5058459;28;20653;-81
2021/12/04 00:51:18;;;;;;;;;;;;;;;9.64;50.58;99680.28;5074848;28;20375;-80
2021/12/04 00:53:47;;;;;;;;;;;;;;;9.63;50.25;99677.72;5071600;28;19920;-79
2021/12/04 00:56:14;;;;;;;;;;;;;;;9.61;50.28;99669.72;5056149;28;19955;-80
2021/12/04 00:58:40;;;;;;;;;;;;;;;9.60;50.43;99665.28;5055369;28;19920;-80
2021/12/04 01:01:07;;;;;;;;;;;;;;;9.59;50.29;99663.56;5071582;28;19928;-81
2021/12/04 01:03:34;;;;;;;;;;;;;;;9.59;50.37;99659.97;5054771;28;19924;-80
2021/12/04 01:06:01;;;;;;;;;;;;;;;9.58;50.13;99656.41;5058025;28;19978;-80
2021/12/04 01:08:27;;;;;;;;;;;;;;;9.58;50.11;99653.69;5055397;28;19967;-80
2021/12/04 01:10:55;;;;;;;;;;;;;;;9.57;50.16;99651.97;5073762;28;19924;-80
2021/12/04 01:13:21;;;;;;;;;;;;;;;9.55;50.36;99649.38;5070508;28;19928;-80
2021/12/04 01:15:48;;;;;;;;;;;;;;;9.55;50.32;99641.25;5067987;28;19977;-80
2021/12/04 01:18:14;;;;;;;;;;;;;;;9.55;50.52;99637.72;5070433;28;19995;-80
2021/12/04 01:20:41;;;;;;;;;;;;;;;9.55;50.32;99632.28;5068087;28;19925;-80
2021/12/04 01:23:07;;;;;;;;;;;;;;;9.54;50.39;99620.59;5072190;28;20424;-80
2021/12/04 01:25:36;;;;;;;;;;;;;;;9.55;50.44;99618.75;5073404;28;19924;-79
2021/12/04 01:28:04;;;;;;;;;;;;;;;9.54;50.40;99617.88;5041835;28;20015;-80
2021/12/04 01:30:31;;;;;;;;;;;;;;;9.54;50.38;99617.03;5073061;28;19920;-80
2021/12/04 01:32:57;;;;;;;;;;;;;;;9.53;50.27;99609.88;5053289;28;19927;-80
2021/12/04 01:35:24;;;;;;;;;;;;;;;9.53;50.45;99613.44;5062062;28;19924;-80
2021/12/04 01:37:50;;;;;;;;;;;;;;;9.52;50.40;99614.44;5048554;28;19965;-80
2021/12/04 01:40:18;;;;;;;;;;;;;;;9.52;50.34;99616.28;5062169;28;19963;-80
2021/12/04 01:42:44;;;;;;;;;;;;;;;9.51;50.45;99615.41;5068602;28;19928;-79
2021/12/04 01:45:11;;;;;;;;;;;;;;;9.52;50.26;99610.88;5048910;28;20024;-80
2021/12/04 01:47:37;;;;;;;;;;;;;;;9.50;50.20;99615.53;5067980;28;19970;-80
2021/12/04 01:50:06;;;;;;;;;;;;;;;9.49;50.39;99608.41;5059235;28;20007;-80
2021/12/04 01:52:33;;;;;;;;;;;;;;;9.48;50.45;99612.94;5057852;28;19920;-80
2021/12/04 01:54:59;;;;;;;;;;;;;;;9.47;50.43;99613.94;5035347;28;20372;-80
2021/12/04 01:57:26;;;;;;;;;;;;;;;9.47;50.49;99613.09;5039268;28;19921;-80
2021/12/04 01:59:53;;;;;;;;;;;;;;;9.48;50.44;99609.38;5054227;28;19926;-80
2021/12/04 02:02:19;;;;;;;;;;;;;;;9.47;50.36;99618.53;5051099;28;19978;-81
2021/12/04 02:04:46;;;;;;;;;;;;;;;9.46;50.29;99606.81;5036134;28;20371;-81
2021/12/04 02:07:15;;;;;;;;;;;;;;;9.45;50.32;99605.09;5046313;28;19955;-80
2021/12/04 02:09:41;;;;;;;;;;;;;;;9.46;50.55;99595.13;5067229;28;19924;-80
2021/12/04 02:12:08;;;;;;;;;;;;;;;9.46;50.29;99595.97;5044448;28;20679;-80
2021/12/04 02:14:36;;;;;;;;;;;;;;;9.47;50.64;99602.25;5058462;28;19943;-80
2021/12/04 02:17:03;;;;;;;;;;;;;;;9.46;50.61;99595.13;5078853;28;19959;-80
2021/12/04 02:19:30;;;;;;;;;;;;;;;9.46;50.73;99605.97;5045196;28;19999;-80
2021/12/04 02:21:56;;;;;;;;;;;;;;;9.46;50.62;99600.53;5035518;28;19971;-80
2021/12/04 02:24:23;;;;;;;;;;;;;;;9.46;50.71;99595.97;5067064;28;19920;-80
2021/12/04 02:26:50;;;;;;;;;;;;;;;9.46;50.49;99592.41;5072304;28;20379;-80
2021/12/04 02:29:17;;;;;;;;;;;;;;;9.45;50.58;99590.69;5069248;28;19928;-80
2021/12/04 02:31:51;;;;;;;;;;;;;;;9.45;50.53;99590.69;5041807;28;19924;-80
2021/12/04 02:34:18;;;;;;;;;;;;;;;9.44;50.65;99587.13;5064987;28;19929;-80
2021/12/04 02:36:45;;;;;;;;;;;;;;;9.45;50.57;99582.56;5064536;28;20596;-80
2021/12/04 02:39:20;;;;;;;;;;;;;;;9.44;50.70;99575.41;5047402;28;20322;-80
2021/12/04 02:41:47;;;;;;;;;;;;;;;9.44;50.60;99586.25;5060288;28;19973;-80
2021/12/04 02:44:13;;;;;;;;;;;;;;;9.44;50.78;99572.72;5048941;28;20660;-80
2021/12/04 02:46:39;;;;;;;;;;;;;;;9.44;50.81;99580.84;5060340;28;19974;-80
2021/12/04 02:49:07;;;;;;;;;;;;;;;9.43;50.74;99565.56;5053177;28;20462;-80
2021/12/04 02:51:33;;;;;;;;;;;;;;;9.42;50.67;99562.00;5051558;28;19931;-80
2021/12/04 02:54:00;;;;;;;;;;;;;;;9.43;50.61;99558.28;5052051;28;19920;-80
2021/12/04 02:56:26;;;;;;;;;;;;;;;9.42;50.85;99548.44;5050252;28;20359;-80
2021/12/04 02:59:00;;;;;;;;;;;;;;;9.44;50.77;99535.66;5054096;28;19921;-80
2021/12/04 03:01:26;;;;;;;;;;;;;;;9.44;50.78;99532.94;5070380;28;19920;-79
2021/12/04 03:04:08;;;;;;;;;;;;;;;9.44;50.76;99535.66;5048427;28;19929;-81
2021/12/04 03:06:42;;;;;;;;;;;;;;;9.43;50.83;99531.22;5056815;28;19920;-81
2021/12/04 03:09:09;;;;;;;;;;;;;;;9.41;50.83;99522.34;5070971;28;19921;-81
2021/12/04 03:11:36;;;;;;;;;;;;;;;9.41;50.67;99532.31;5068070;28;19974;-80
2021/12/04 03:14:03;;;;;;;;;;;;;;;9.40;50.79;99519.75;5068204;28;19974;-81
2021/12/04 03:16:30;;;;;;;;;;;;;;;9.38;50.82;99511.78;5050756;28;20006;-81
2021/12/04 03:18:57;;;;;;;;;;;;;;;9.37;50.67;99512.75;5050244;28;19928;-81
2021/12/04 03:21:23;;;;;;;;;;;;;;;9.36;50.66;99511.03;5055976;28;20016;-80
2021/12/04 03:23:57;;;;;;;;;;;;;;;9.34;50.89;99504.88;5073489;28;20481;-81
2021/12/04 03:26:24;;;;;;;;;;;;;;;9.34;50.77;99504.03;5048332;28;19927;-82
2021/12/04 03:28:52;;;;;;;;;;;;;;;9.33;50.78;99486.03;5069720;28;19920;-80
2021/12/04 03:42:08;;;;;;;;;;;;;;;9.26;51.12;99457.75;5067579;28;19920;-80
2021/12/04 03:44:34;;;;;;;;;;;;;;;9.25;50.97;99462.31;5069764;28;20350;-80
2021/12/04 03:47:01;;;;;;;;;;;;;;;9.24;51.08;99460.59;5074607;28;19925;-80
2021/12/04 03:49:28;;;;;;;;;;;;;;;9.25;50.83;99461.44;5065408;28;20024;-80
2021/12/04 03:51:54;;;;;;;;;;;;;;;9.23;51.07;99453.44;5065774;28;20368;-80
2021/12/04 03:54:21;;;;;;;;;;;;;;;9.22;51.12;99456.31;5074057;28;20402;-80
2021/12/04 03:56:50;;;;;;;;;;;;;;;9.22;50.97;99453.59;5075746;28;20321;-80
2021/12/04 03:59:18;;;;;;;;;;;;;;;9.20;50.99;99453.72;5067384;28;19924;-80
2021/12/04 04:01:45;;;;;;;;;;;;;;;9.19;50.94;99457.41;5054743;28;19943;-80
2021/12/04 04:04:12;;;;;;;;;;;;;;;9.20;51.08;99461.00;5063986;28;19943;-81
2021/12/04 04:06:38;;;;;;;;;;;;;;;9.18;51.02;99461.13;5054657;28;19967;-80
2021/12/04 04:09:05;;;;;;;;;;;;;;;9.18;51.00;99465.66;5072132;28;19973;-79
2021/12/04 04:11:35;;;;;;;;;;;;;;;9.18;51.23;99461.13;5062851;28;19921;-80
2021/12/04 04:14:03;;;;;;;;;;;;;;;9.16;51.06;99463.94;5048207;28;19924;-80
2021/12/04 04:16:30;;;;;;;;;;;;;;;9.14;51.19;99462.38;5070526;28;21663;-80
2021/12/04 04:18:56;;;;;;;;;;;;;;;9.14;51.37;99465.91;5070049;28;19927;-79
2021/12/04 04:21:23;;;;;;;;;;;;;;;9.14;51.38;99456.97;5070591;28;20622;-80
2021/12/04 04:23:49;;;;;;;;;;;;;;;9.12;51.28;99456.22;5048765;28;19975;-80
2021/12/04 04:26:16;;;;;;;;;;;;;;;9.13;51.31;99452.53;5067178;28;19959;-79
2021/12/04 04:28:42;;;;;;;;;;;;;;;9.12;51.35;99446.25;5050168;28;20437;-80
2021/12/04 04:31:09;;;;;;;;;;;;;;;9.12;51.18;99442.69;5037776;28;19971;-79
2021/12/04 04:33:40;;;;;;;;;;;;;;;9.13;51.34;99447.97;5058577;28;20468;-80
2021/12/04 04:38:47;;;;;;;;;;;;;;;9.13;51.38;99445.25;5074187;28;19921;-80
2021/12/04 04:58:16;;;;;;;;;;;;;;;9.11;51.38;99432.84;5066131;28;19928;-79
2021/12/04 05:00:53;;;;;;;;;;;;;;;9.11;51.46;99427.41;5068344;28;19978;-80
2021/12/04 05:11:46;;;;;;;;;;;;;;;9.12;51.67;99429.13;5066236;28;19928;-79
2021/12/04 05:14:19;;;;;;;;;;;;;;;9.13;51.44;99422.75;5070038;28;19924;-80
2021/12/04 05:17:03;;;;;;;;;;;;;;;9.13;51.73;99420.91;5055312;28;20371;-80
2021/12/04 05:19:39;;;;;;;;;;;;;;;9.16;51.65;99414.34;5075587;28;19970;-79
2021/12/04 05:22:06;;;;;;;;;;;;;;;9.14;51.65;99411.75;5055135;28;19920;-80
2021/12/04 05:24:33;;;;;;;;;;;;;;;9.16;51.62;99406.22;5072290;28;19920;-79
2021/12/04 05:27:00;;;;;;;;;;;;;;;9.15;51.67;99405.34;5054230;28;20337;-80
2021/12/04 05:29:26;;;;;;;;;;;;;;;9.16;51.63;99396.25;5069001;28;19946;-79
2021/12/04 05:31:53;;;;;;;;;;;;;;;9.17;51.54;99405.22;5054541;28;19920;-80
2021/12/04 05:34:19;;;;;;;;;;;;;;;9.18;51.57;99408.81;5063295;28;19920;-80
2021/12/04 05:36:46;;;;;;;;;;;;;;;9.18;51.54;99408.81;5073114;28;20323;-79
2021/12/04 05:39:12;;;;;;;;;;;;;;;9.19;51.68;99411.38;5054308;28;19948;-79
2021/12/04 05:41:39;;;;;;;;;;;;;;;9.19;51.64;99411.38;5058468;28;20415;-79
2021/12/04 05:44:08;;;;;;;;;;;;;;;9.20;51.61;99413.09;5053338;28;20358;-80
2021/12/04 05:46:39;;;;;;;;;;;;;;;9.22;51.60;99399.44;5060789;28;20261;-79
2021/12/04 05:49:31;;;;;;;;;;;;;;;9.21;51.62;99393.16;5051811;28;19926;-78
2021/12/04 05:57:09;;;;;;;;;;;;;;;9.23;51.57;99396.59;5063585;28;20011;-79
2021/12/04 05:59:36;;;;;;;;;;;;;;;9.24;51.72;99401.00;5064269;28;19935;-79
2021/12/04 06:02:03;;;;;;;;;;;;;;;9.25;51.59;99397.31;5062876;28;19928;-79
2021/12/04 06:04:30;;;;;;;;;;;;;;;9.24;51.36;99394.75;5055611;28;20268;-79
2021/12/04 06:06:56;;;;;;;;;;;;;;;9.26;51.46;99406.31;5059016;28;19967;-80
2021/12/04 06:09:22;;;;;;;;;;;;;;;9.25;51.45;99404.59;5053618;28;19955;-79
2021/12/04 06:11:49;;;;;;;;;;;;;;;9.26;51.54;99407.16;5072433;28;19952;-79
2021/12/04 06:14:15;;;;;;;;;;;;;;;9.25;51.57;99402.75;5038675;28;20466;-80
2021/12/04 06:16:42;;;;;;;;;;;;;;;9.26;51.55;99401.75;5059739;28;19942;-79
2021/12/04 06:19:23;;;;;;;;;;;;;;;9.27;51.73;99391.78;5070355;28;19921;-79
2021/12/04 06:24:35;;;;;;;;;;;;;;;9.27;51.47;99389.06;5060799;28;20006;-79
2021/12/04 06:27:02;;;;;;;;;;;;;;;9.27;51.50;99384.53;5057340;28;20622;-79
2021/12/04 06:29:28;;;;;;;;;;;;;;;9.27;51.60;99379.09;5068161;28;19969;-79
2021/12/04 06:31:55;;;;;;;;;;;;;;;9.28;51.70;99379.97;5045735;28;19928;-79
2021/12/04 06:34:22;;;;;;;;;;;;;;;9.28;51.62;99382.66;5059339;28;20510;-80
2021/12/04 06:36:48;;;;;;;;;;;;;;;9.27;51.60;99384.53;5053546;28;19974;-79
2021/12/04 06:39:21;;;;;;;;;;;;;;;9.27;51.50;99387.22;5065361;28;19975;-80
2021/12/04 06:41:48;;;;;;;;;;;;;;;9.26;51.65;99388.22;5058242;28;19924;-79
2021/12/04 06:44:15;;;;;;;;;;;;;;;9.27;51.51;99384.53;5052987;28;19963;-79
2021/12/04 06:46:42;;;;;;;;;;;;;;;9.28;51.47;99382.66;5054767;28;20324;-79
2021/12/04 06:49:15;;;;;;;;;;;;;;;9.28;51.50;99377.25;5054642;28;19921;-79
2021/12/04 06:51:46;;;;;;;;;;;;;;;9.27;51.65;99376.41;5055008;28;19978;-80
2021/12/04 06:54:19;;;;;;;;;;;;;;;9.28;51.70;99374.53;5070347;28;20855;-79
2021/12/04 06:56:46;;;;;;;;;;;;;;;9.28;51.41;99385.38;5074836;28;19966;-80
2021/12/04 06:59:17;;;;;;;;;;;;;;;9.29;51.62;99384.41;5070739;28;19924;-79
2021/12/04 07:01:43;;;;;;;;;;;;;;;9.28;51.64;99378.13;5059428;28;19968;-79
2021/12/04 07:04:10;;;;;;;;;;;;;;;9.29;51.45;99384.41;5056700;28;20287;-79
2021/12/04 07:06:38;;;;;;;;;;;;;;;9.28;51.77;99383.53;5072132;28;19927;-79
2021/12/04 07:09:05;;;;;;;;;;;;;;;9.29;51.53;99379.84;5052801;28;20339;-79
2021/12/04 07:11:31;;;;;;;;;;;;;;;9.29;51.75;99385.25;5072573;28;19928;-79
2021/12/04 07:13:58;;;;;;;;;;;;;;;9.29;51.46;99382.56;5062602;28;20357;-80
2021/12/04 07:16:24;;;;;;;;;;;;;;;9.30;51.45;99378.84;5053593;28;19924;-79
2021/12/04 07:18:51;;;;;;;;;;;;;;;9.30;51.49;99378.84;5047463;28;19927;-80
2021/12/04 07:21:18;;;;;;;;;;;;;;;9.30;51.85;99378.00;5071308;28;19928;-80
2021/12/04 07:23:44;;;;;;;;;;;;;;;9.31;51.55;99376.97;5033350;28;20383;-80
2021/12/04 07:26:11;;;;;;;;;;;;;;;9.31;51.90;99380.53;5061180;28;19920;-79
2021/12/04 07:28:38;;;;;;;;;;;;;;;9.31;51.75;99382.38;5047161;28;19921;-80
2021/12/04 07:31:04;;;;;;;;;;;;;;;9.31;51.59;99372.41;5069462;28;19999;-79
2021/12/04 07:33:32;;;;;;;;;;;;;;;9.31;51.76;99376.97;5058809;28;19921;-80
2021/12/04 07:35:59;;;;;;;;;;;;;;;9.32;51.41;99376.84;5047319;28;19920;-80
2021/12/04 07:38:26;;;;;;;;;;;;;;;9.32;51.73;99376.00;5048029;28;19960;-80
2021/12/04 07:40:54;;;;;;;;;;;;;;;9.32;51.73;99381.41;5060182;28;19926;-80
2021/12/04 07:43:20;;;;;;;;;;;;;;;9.32;51.61;99378.69;5063553;28;20260;-79
2021/12/04 07:45:47;;;;;;;;;;;;;;;9.32;51.88;99379.56;5060968;28;19927;-79
2021/12/04 07:48:34;;;;;;;;;;;;;;;9.33;51.72;99384.00;5069851;28;19959;-79
2021/12/04 07:51:02;;;;;;;;;;;;;;;9.32;51.61;99376.84;5058449;28;19926;-79
2021/12/04 07:53:29;;;;;;;;;;;;;;;9.33;51.87;99383.13;5067490;28;20406;-79
2021/12/04 07:55:55;;;;;;;;;;;;;;;9.33;51.75;99384.00;5055367;28;20429;-80
2021/12/04 07:58:22;;;;;;;;;;;;;;;9.33;51.76;99383.13;5050307;28;20513;-80
2021/12/04 08:00:49;;;;;;;;;;;;;;;9.33;51.82;99389.41;5065328;28;19966;-81
2021/12/04 08:03:16;;;;;;;;;;;;;;;9.34;51.82;99383.00;5059748;28;19960;-79
2021/12/04 08:05:43;;;;;;;;;;;;;;;9.35;51.77;99386.56;5070965;28;19931;-79
2021/12/04 08:08:10;;;;;;;;;;;;;;;9.35;51.59;99379.31;5055421;28;20548;-80
2021/12/04 08:10:36;;;;;;;;;;;;;;;9.36;51.88;99380.16;5056698;28;19920;-80
2021/12/04 08:13:06;;;;;;;;;;;;;;;9.37;51.88;99385.47;5063291;28;19924;-80
2021/12/04 08:15:33;;;;;;;;;;;;;;;9.38;51.75;99380.91;5072171;28;19921;-81
2021/12/04 08:18:03;;;;;;;;;;;;;;;9.37;51.83;99374.63;5037581;28;19970;-80
2021/12/04 08:20:30;;;;;;;;;;;;;;;9.39;51.76;99380.75;5051238;28;19960;-80
2021/12/04 08:22:58;;;;;;;;;;;;;;;9.39;51.93;99378.03;5026834;28;20307;-80
2021/12/04 08:25:25;;;;;;;;;;;;;;;9.39;51.82;99378.03;5071941;28;20371;-81
2021/12/04 08:27:52;;;;;;;;;;;;;;;9.39;51.80;99375.34;5050198;28;19975;-80
2021/12/04 08:30:20;;;;;;;;;;;;;;;9.39;51.90;99372.63;5071178;28;19964;-80
2021/12/04 08:32:49;;;;;;;;;;;;;;;9.41;51.94;99380.63;5071947;28;20035;-80
2021/12/04 08:35:18;;;;;;;;;;;;;;;9.42;51.92;99383.22;5061571;28;20412;-80
2021/12/04 08:37:45;;;;;;;;;;;;;;;9.41;51.99;99375.22;5070434;28;19927;-81
2021/12/04 08:40:14;;;;;;;;;;;;;;;9.42;51.80;99360.69;5067571;28;19963;-80
2021/12/04 08:42:45;;;;;;;;;;;;;;;9.42;51.97;99366.09;5063402;28;20015;-80
2021/12/04 08:45:12;;;;;;;;;;;;;;;9.43;51.82;99360.56;5055108;28;20566;-80
2021/12/04 08:47:39;;;;;;;;;;;;;;;9.43;51.88;99357.84;5070627;28;19963;-80
2021/12/04 08:50:07;;;;;;;;;;;;;;;9.43;52.07;99365.97;5066922;28;19921;-80
2021/12/04 08:52:33;;;;;;;;;;;;;;;9.43;51.85;99355.13;5043881;28;19924;-81
2021/12/04 08:55:00;;;;;;;;;;;;;;;9.45;51.75;99357.72;5056841;28;19920;-81
2021/12/04 08:57:26;;;;;;;;;;;;;;;9.45;51.93;99353.16;5056103;28;19921;-80
2021/12/04 08:59:53;;;;;;;;;;;;;;;9.46;52.13;99346.75;5072977;28;20370;-80
2021/12/04 09:02:21;;;;;;;;;;;;;;;9.46;51.95;99346.75;5063915;28;19977;-81
2021/12/04 09:04:47;;;;;;;;;;;;;;;9.48;51.78;99341.19;5067496;28;19971;-81
2021/12/04 09:07:14;;;;;;;;;;;;;;;9.49;51.84;99357.31;5067672;28;19928;-82
2021/12/04 09:09:46;;;;;;;;;;;;;;;9.50;51.93;99359.03;5049113;28;19964;-82
2021/12/04 09:12:20;;;;;;;;;;;;;;;9.51;52.08;99363.47;5017892;28;19930;-81
2021/12/04 09:17:56;;;;;;;;;;;;;;;9.54;51.97;99344.25;5009177;28;19921;-82
2021/12/04 09:20:30;;;;;;;;;;;;;;;9.55;51.92;99351.34;5010248;28;20656;-81
2021/12/04 09:22:57;;;;;;;;;;;;;;;9.55;52.09;99345.94;4983545;28;20312;-82
2021/12/04 09:25:26;;;;;;;;;;;;;;;9.55;52.10;99345.94;5009207;28;19963;-82
2021/12/04 10:01:27;;;;;;;;;;;;;;;9.55;52.36;99280.91;5074186;28;20984;-80
2021/12/04 10:12:33;;;;;;;;;;;;;;;9.61;52.25;99255.16;5060524;28;19928;-80
2021/12/04 10:34:34;;;;;;;;;;;;;;;9.81;52.39;99229.81;5066216;28;20332;-79
2021/12/04 10:37:12;;;;;;;;;;;;;;;9.85;52.50;99227.72;5042656;28;19964;-79
2021/12/04 10:39:39;;;;;;;;;;;;;;;9.86;52.40;99232.13;5055218;28;19921;-80
2021/12/04 10:42:19;;;;;;;;;;;;;;;9.89;52.33;99221.00;5051310;28;19921;-79
2021/12/04 10:44:51;;;;;;;;;;;;;;;9.90;52.47;99203.75;5071269;28;19981;-79
2021/12/04 10:47:27;;;;;;;;;;;;;;;9.92;52.27;99191.78;5063755;28;20420;-79
2021/12/04 10:55:10;;;;;;;;;;;;;;;9.97;52.20;99176.94;5073211;28;19977;-79
2021/12/04 11:00:45;;;;;;;;;;;;;;;10.02;52.18;99166.53;5054419;28;19920;-78
2021/12/04 11:25:17;;;;;;;;;;;;;;;10.10;52.05;99134.16;5069032;28;20371;-78
2021/12/04 11:44:12;;;;;;;;;;;;;;;10.08;52.19;99093.63;5078603;28;20310;-78
2021/12/04 11:46:42;;;;;;;;;;;;;;;10.10;52.02;99090.78;5059617;28;19975;-78
2021/12/04 11:49:19;;;;;;;;;;;;;;;10.10;52.18;99083.50;5054266;28;19959;-78
2021/12/04 11:51:57;;;;;;;;;;;;;;;10.12;52.03;99083.34;5059368;28;19921;-78
2021/12/04 11:54:27;;;;;;;;;;;;;;;10.12;52.04;99070.66;5054779;28;20291;-77
2021/12/04 11:57:01;;;;;;;;;;;;;;;10.14;52.07;99086.75;5045275;28;20051;-78
2021/12/04 11:59:32;;;;;;;;;;;;;;;10.15;51.88;99078.50;5065505;28;20390;-78
2021/12/04 12:02:00;;;;;;;;;;;;;;;10.17;52.01;99064.78;5059411;28;19975;-78
2021/12/04 12:04:38;;;;;;;;;;;;;;;10.19;52.08;99070.97;5068300;28;20330;-78
2021/12/04 12:07:12;;;;;;;;;;;;;;;10.20;52.08;99067.25;5057875;28;19951;-78
2021/12/04 12:09:40;;;;;;;;;;;;;;;10.21;52.04;99052.72;5071068;28;19921;-78
2021/12/04 12:12:10;;;;;;;;;;;;;;;10.21;52.09;99042.69;5053987;28;19943;-77
2021/12/04 12:14:48;;;;;;;;;;;;;;;10.22;51.95;99044.41;5053592;28;19971;-78
2021/12/04 12:17:27;;;;;;;;;;;;;;;10.22;51.85;99033.56;5069311;28;19924;-78
2021/12/04 12:19:54;;;;;;;;;;;;;;;10.23;51.82;99018.13;5072207;28;19924;-78
2021/12/04 12:22:41;;;;;;;;;;;;;;;10.24;51.98;99015.28;5060498;28;19969;-78
2021/12/04 12:25:26;;;;;;;;;;;;;;;10.24;52.07;99011.72;5036116;28;19921;-77
2021/12/04 12:31:49;;;;;;;;;;;;;;;10.24;52.12;99020.72;5070188;28;19925;-77
2021/12/04 12:34:10;;;;;;;;;;;;;;;10.27;51.97;99017.72;5060870;28;20103;-78
2021/12/04 12:36:28;;;;;;;;;;;;;;;10.29;52.06;99015.69;5059838;28;19924;-78
2021/12/04 12:39:03;;;;;;;;;;;;;;;10.31;52.11;99010.13;5046017;28;19920;-78
2021/12/04 12:41:42;;;;;;;;;;;;;;;10.32;51.93;98992.00;5060333;28;19921;-78
2021/12/04 12:44:10;;;;;;;;;;;;;;;10.32;52.01;98997.41;5063959;28;19947;-78
2021/12/04 12:46:39;;;;;;;;;;;;;;;10.33;51.96;98983.72;5053587;28;20023;-78
2021/12/04 12:49:16;;;;;;;;;;;;;;;10.34;51.94;98977.28;5038908;28;19928;-78
2021/12/04 12:51:44;;;;;;;;;;;;;;;10.35;51.79;98976.31;5054238;28;19920;-79
2021/12/04 12:54:22;;;;;;;;;;;;;;;10.35;51.92;98975.44;5061753;28;19920;-78
2021/12/04 12:56:56;;;;;;;;;;;;;;;10.38;51.96;98983.28;5067910;28;20015;-78
2021/12/04 12:59:40;;;;;;;;;;;;;;;10.39;51.77;98980.41;5070778;28;19924;-78
2021/12/04 13:13:32;;;;;;;;;;;;;;;10.46;51.97;98999.69;5069361;28;20014;-79
2021/12/04 13:16:04;;;;;;;;;;;;;;;10.47;51.69;98994.09;5052121;28;19920;-79
2021/12/04 13:18:33;;;;;;;;;;;;;;;10.48;51.84;99000.38;5057129;28;19932;-79
2021/12/04 13:21:10;;;;;;;;;;;;;;;10.50;51.77;99003.81;5057806;28;20280;-80
2021/12/04 13:23:38;;;;;;;;;;;;;;;10.51;51.79;99000.09;5058312;28;19920;-80
2021/12/04 13:26:11;;;;;;;;;;;;;;;10.53;51.95;99015.25;5048232;28;20388;-80
2021/12/04 13:28:40;;;;;;;;;;;;;;;10.54;52.09;99011.50;5045746;28;19924;-79
2021/12/04 13:31:11;;;;;;;;;;;;;;;10.56;51.89;99006.78;5049243;28;20312;-80
2021/12/04 13:33:39;;;;;;;;;;;;;;;10.57;51.88;98996.78;5055844;28;20363;-80
2021/12/04 13:36:26;;;;;;;;;;;;;;;10.57;51.81;98994.94;5061533;28;19963;-80
2021/12/04 13:38:57;;;;;;;;;;;;;;;10.59;52.03;98995.66;5051461;28;19921;-80
2021/12/04 13:41:24;;;;;;;;;;;;;;;10.61;51.97;98995.50;5053015;28;20415;-79
2021/12/04 13:43:52;;;;;;;;;;;;;;;10.62;51.71;98994.50;5049462;28;20362;-80
2021/12/04 13:46:19;;;;;;;;;;;;;;;10.63;52.08;98993.47;5056970;28;19924;-80
2021/12/04 13:48:46;;;;;;;;;;;;;;;10.64;52.04;98990.63;5062389;28;19924;-80
2021/12/04 13:51:12;;;;;;;;;;;;;;;10.65;51.92;98992.31;5053546;28;20022;-80
2021/12/04 13:53:41;;;;;;;;;;;;;;;10.67;51.73;98989.47;5045905;28;20359;-80
2021/12/04 13:56:10;;;;;;;;;;;;;;;10.68;52.04;98989.31;5053191;28;20279;-80
2021/12/04 13:58:52;;;;;;;;;;;;;;;10.70;51.81;98988.31;5063771;28;20013;-79
2021/12/04 14:01:19;;;;;;;;;;;;;;;10.71;51.96;98973.75;5043472;28;19924;-79
2021/12/04 14:03:47;;;;;;;;;;;;;;;10.73;51.94;98974.44;5068234;28;20283;-79
2021/12/04 14:06:15;;;;;;;;;;;;;;;10.73;51.95;98980.72;5069231;28;19994;-80
2021/12/04 14:08:42;;;;;;;;;;;;;;;10.73;52.02;98980.72;5047783;28;19921;-80
2021/12/04 14:11:09;;;;;;;;;;;;;;;10.75;52.04;98984.16;5064355;28;19943;-79
2021/12/04 14:13:37;;;;;;;;;;;;;;;10.76;52.11;98990.44;5067369;28;19969;-79
2021/12/04 14:16:05;;;;;;;;;;;;;;;10.76;51.83;98987.72;5060325;28;20023;-80
2021/12/04 14:18:34;;;;;;;;;;;;;;;10.78;51.97;98993.88;5038767;28;19928;-79
2021/12/04 14:21:01;;;;;;;;;;;;;;;10.79;51.94;99001.00;5072033;28;19921;-80
2021/12/04 14:23:29;;;;;;;;;;;;;;;10.79;51.87;99001.84;5049888;28;19928;-79
2021/12/04 14:25:56;;;;;;;;;;;;;;;10.80;51.86;99008.97;5052422;28;20346;-78
2021/12/04 14:28:25;;;;;;;;;;;;;;;10.81;51.81;99015.25;5053073;28;20352;-79
2021/12/04 14:30:52;;;;;;;;;;;;;;;10.81;51.75;99026.13;5050642;28;19927;-80
2021/12/04 14:33:21;;;;;;;;;;;;;;;10.82;51.66;99030.56;5068254;28;20407;-78
2021/12/04 14:35:50;;;;;;;;;;;;;;;10.81;51.70;99032.41;5051295;28;19920;-80
2021/12/04 14:38:20;;;;;;;;;;;;;;;10.82;51.92;99038.69;5050972;28;19959;-79
2021/12/04 14:40:48;;;;;;;;;;;;;;;10.82;51.80;99035.97;5057022;28;20003;-79
2021/12/04 14:43:16;;;;;;;;;;;;;;;10.81;51.89;99045.13;5062631;28;19971;-78
2021/12/04 14:45:44;;;;;;;;;;;;;;;10.81;51.73;99045.97;5072707;28;20023;-79
2021/12/04 14:48:12;;;;;;;;;;;;;;;10.80;51.81;99055.13;5048982;28;19966;-79
2021/12/04 14:50:41;;;;;;;;;;;;;;;10.80;51.59;99054.25;5065680;28;20415;-79
2021/12/04 14:53:09;;;;;;;;;;;;;;;10.79;51.68;99068.88;5052898;28;19978;-80
2021/12/04 14:55:37;;;;;;;;;;;;;;;10.79;51.49;99071.59;5050763;28;20383;-78
2021/12/04 14:58:08;;;;;;;;;;;;;;;10.77;51.58;99065.44;5054884;28;19928;-78
2021/12/04 15:00:37;;;;;;;;;;;;;;;10.76;51.56;99072.72;5053521;28;19924;-79
2021/12/04 15:03:07;;;;;;;;;;;;;;;10.75;51.75;99064.72;5051234;28;19924;-79
2021/12/04 15:05:37;;;;;;;;;;;;;;;10.73;51.68;99067.56;5064801;28;19930;-80
2021/12/04 15:08:09;;;;;;;;;;;;;;;10.72;51.48;99071.28;5048468;28;19928;-79
2021/12/04 15:10:41;;;;;;;;;;;;;;;10.72;51.49;99082.16;5059087;28;20360;-79
2021/12/04 15:13:17;;;;;;;;;;;;;;;10.68;51.67;99068.03;5060609;28;20307;-79
2021/12/04 15:15:44;;;;;;;;;;;;;;;10.67;51.73;99077.19;5048864;28;19975;-78
2021/12/04 15:18:13;;;;;;;;;;;;;;;10.65;51.49;99075.59;5054448;28;19920;-78
2021/12/04 15:20:51;;;;;;;;;;;;;;;10.63;51.63;99092.03;5061997;28;19925;-79
2021/12/04 15:23:20;;;;;;;;;;;;;;;10.62;51.84;99084.06;5062915;28;19959;-79
2021/12/04 15:25:49;;;;;;;;;;;;;;;10.62;51.85;99078.63;5066833;28;19921;-78
2021/12/04 15:28:16;;;;;;;;;;;;;;;10.60;51.92;99081.47;5071496;28;19925;-78
2021/12/04 15:30:53;;;;;;;;;;;;;;;10.60;51.96;99086.06;5069162;28;19932;-78
2021/12/04 15:33:25;;;;;;;;;;;;;;;10.59;52.02;99095.19;5070801;28;19924;-78
2021/12/04 15:35:52;;;;;;;;;;;;;;;10.58;51.91;99099.75;5070423;28;20535;-78
2021/12/04 15:38:34;;;;;;;;;;;;;;;10.58;51.69;99102.47;5069494;28;19960;-78
2021/12/04 15:41:18;;;;;;;;;;;;;;;10.56;52.04;99109.03;5052536;28;20370;-80
2021/12/04 15:46:27;;;;;;;;;;;;;;;10.55;52.07;99113.59;5069961;28;19975;-80
2021/12/04 15:54:47;;;;;;;;;;;;;;;10.54;51.65;99138.19;5070510;28;19979;-80
2021/12/04 15:57:26;;;;;;;;;;;;;;;10.52;51.91;99140.19;5076683;28;19924;-80
2021/12/04 15:59:53;;;;;;;;;;;;;;;10.53;51.86;99147.34;5040696;28;19921;-79
2021/12/04 16:02:23;;;;;;;;;;;;;;;10.51;51.68;99143.91;5069166;28;19929;-80
2021/12/04 16:04:50;;;;;;;;;;;;;;;10.50;51.72;99136.75;5067760;28;19973;-80
2021/12/04 16:07:22;;;;;;;;;;;;;;;10.49;51.76;99146.75;5054809;28;19920;-79
2021/12/04 16:09:49;;;;;;;;;;;;;;;10.49;51.90;99148.59;5055919;28;19928;-80
2021/12/04 16:12:15;;;;;;;;;;;;;;;10.46;51.86;99152.44;5071489;28;20246;-81
2021/12/04 16:14:50;;;;;;;;;;;;;;;10.46;51.84;99159.75;5080853;28;19924;-80